Time;durP1;ratioP1;P1;durP2;ratioP2;P2;SDS_P1;SDS_P2;PMS_P1;PMS_P2;Temp;Humidity;BMP_temperature;BMP_pressure;BME280_temperature;BME280_humidity;BME280_pressure;Samples;Min_cycle;Max_cycle;Signal;HPM_P1;HPM_P2
2023/08/08 00:01:21;;;;;;;4.30;1.70;;;21.50;90.90;;;;;;5033032;28;20133;-62
2023/08/08 00:03:47;;;;;;;4.15;1.67;;;21.40;90.90;;;;;;5016244;28;20125;-62
2023/08/08 00:06:12;;;;;;;3.38;1.67;;;21.40;89.50;;;;;;5031527;28;20136;-66
2023/08/08 00:08:38;;;;;;;4.32;1.67;;;21.50;90.80;;;;;;5031118;28;20133;-72
2023/08/08 00:11:04;;;;;;;3.40;1.70;;;21.60;90.90;;;;;;5033740;28;20042;-67
2023/08/08 00:13:30;;;;;;;4.90;2.13;;;21.60;90.90;;;;;;5030752;28;20446;-68
2023/08/08 00:15:55;;;;;;;3.70;1.77;;;21.60;90.90;;;;;;5017771;28;20057;-68
2023/08/08 00:18:21;;;;;;;4.32;1.77;;;21.50;90.90;;;;;;5016226;28;20057;-67
2023/08/08 00:20:47;;;;;;;4.55;1.90;;;21.40;90.90;;;;;;5032586;28;20041;-69
2023/08/08 00:23:12;;;;;;;3.67;1.80;;;21.60;91.00;;;;;;5033299;28;20045;-69
2023/08/08 00:25:38;;;;;;;3.58;1.70;;;21.40;91.10;;;;;;5023140;28;20111;-71
2023/08/08 00:28:04;;;;;;;3.25;1.58;;;21.40;91.00;;;;;;5016057;28;20111;-70
2023/08/08 00:30:30;;;;;;;5.55;2.00;;;21.40;90.90;;;;;;5015775;28;20468;-66
2023/08/08 00:32:55;;;;;;;4.30;2.03;;;21.50;91.00;;;;;;5033256;28;20049;-70
2023/08/08 00:35:21;;;;;;;3.97;1.75;;;21.60;89.80;;;;;;5032364;28;20037;-70
2023/08/08 00:37:51;;;;;;;5.35;1.83;;;21.40;90.90;;;;;;5018861;28;20050;-66
2023/08/08 00:40:17;;;;;;;3.38;1.50;;;21.40;91.10;;;;;;5015562;28;20228;-69
2023/08/08 00:42:42;;;;;;;3.13;1.73;;;21.40;91.00;;;;;;5028155;28;20132;-63
2023/08/08 00:45:08;;;;;;;3.40;1.70;;;21.40;91.10;;;;;;5025484;28;20410;-62
2023/08/08 00:47:34;;;;;;;3.60;1.65;;;21.50;91.00;;;;;;5033315;28;20041;-70
2023/08/08 00:50:03;;;;;;;3.42;1.55;;;21.50;91.00;;;;;;5049150;28;20404;-65
2023/08/08 00:52:29;;;;;;;3.88;1.65;;;21.50;91.10;;;;;;5031826;28;20049;-67
2023/08/08 00:54:55;;;;;;;4.15;1.70;;;21.50;91.10;;;;;;5031732;28;20128;-67
2023/08/08 00:57:21;;;;;;;4.65;1.98;;;21.20;91.00;;;;;;5016344;28;20111;-64
2023/08/08 00:59:46;;;;;;;3.20;1.70;;;21.30;91.10;;;;;;5033085;28;20048;-69
2023/08/08 01:02:12;;;;;;;3.97;1.67;;;21.40;91.00;;;;;;5031352;28;20046;-61
2023/08/08 01:04:38;;;;;;;3.55;1.92;;;21.30;91.10;;;;;;5030428;28;20440;-65
2023/08/08 01:07:10;;;;;;;3.33;1.60;;;21.30;91.10;;;;;;5032942;28;20046;-62
2023/08/08 01:10:10;;;;;;;3.67;1.80;;;21.60;91.10;;;;;;5033538;28;20041;-62
2023/08/08 01:12:46;;;;;;;4.40;1.80;;;21.40;91.00;;;;;;5019417;28;20050;-63
2023/08/08 01:15:12;;;;;;;2.88;1.42;;;21.40;91.30;;;;;;5015030;28;20092;-61
2023/08/08 01:17:38;;;;;;;3.17;1.60;;;21.50;91.10;;;;;;5033563;28;20483;-62
2023/08/08 01:20:06;;;;;;;3.28;1.75;;;21.30;91.10;;;;;;5033472;28;20045;-63
2023/08/08 01:22:57;;;;;;;4.40;1.70;;;21.40;91.30;;;;;;5033087;28;20049;-61
2023/08/08 01:25:23;;;;;;;3.97;1.70;;;21.30;91.10;;;;;;5048455;28;20061;-62
2023/08/08 01:27:49;;;;;;;4.25;1.90;;;21.40;91.20;;;;;;5025621;28;20116;-61
2023/08/08 01:30:15;;;;;;;3.38;1.45;;;21.30;91.10;;;;;;5034714;28;20111;-62
2023/08/08 01:32:40;;;;;;;3.92;1.75;;;21.20;91.10;;;;;;5033324;28;20084;-64
2023/08/08 01:35:07;;;;;;;4.00;1.60;;;21.30;91.10;;;;;;5032362;28;20364;-65
2023/08/08 01:37:36;;;;;;;3.40;1.60;;;21.50;91.20;;;;;;5028523;28;20100;-66
2023/08/08 01:40:02;;;;;;;4.18;1.75;;;21.30;91.10;;;;;;5032929;28;20042;-68
2023/08/08 01:42:29;;;;;;;3.53;1.55;;;21.20;91.40;;;;;;5049315;28;20051;-67
2023/08/08 01:44:55;;;;;;;3.55;1.58;;;21.30;90.90;;;;;;5039811;28;20050;-67
2023/08/08 01:47:21;;;;;;;3.20;1.70;;;21.40;91.30;;;;;;5020903;28;20061;-64
2023/08/08 01:49:47;;;;;;;4.20;1.70;;;21.50;91.20;;;;;;5024297;28;20045;-64
2023/08/08 01:52:12;;;;;;;3.33;1.58;;;21.30;91.20;;;;;;5027048;28;20077;-64
2023/08/08 01:54:38;;;;;;;2.92;1.42;;;21.30;90.30;;;;;;5065910;28;20100;-67
2023/08/08 01:57:04;;;;;;;3.25;1.50;;;21.30;91.10;;;;;;5062443;28;20111;-70
2023/08/08 01:59:30;;;;;;;3.38;1.98;;;;;;;;;;5063542;28;20060;-66
2023/08/08 02:01:56;;;;;;;3.65;1.70;;;21.30;91.10;;;;;;5023728;28;20389;-72
2023/08/08 02:04:22;;;;;;;2.63;1.58;;;21.30;91.20;;;;;;4980609;28;20075;-68
2023/08/08 02:06:48;;;;;;;3.63;1.60;;;21.30;91.20;;;;;;5051128;28;20045;-65
2023/08/08 02:09:15;;;;;;;3.47;1.60;;;21.40;91.20;;;;;;5029536;28;20128;-67
2023/08/08 02:11:41;;;;;;;5.18;1.77;;;21.30;90.20;;;;;;5015117;28;20057;-69
2023/08/08 02:14:07;;;;;;;4.10;1.85;;;21.30;91.20;;;;;;4996210;28;20117;-65
2023/08/08 02:16:34;;;;;;;5.05;1.75;;;21.10;91.20;;;;;;5029388;28;20050;-65
2023/08/08 02:19:00;;;;;;;4.10;1.70;;;21.30;91.60;;;;;;5027135;28;20057;-65
2023/08/08 02:21:26;;;;;;;3.97;1.92;;;;;;;;;;5031982;28;20053;-69
2023/08/08 02:23:52;;;;;;;4.40;1.70;;;21.20;91.20;;;;;;5031939;28;20049;-66
2023/08/08 02:26:18;;;;;;;4.30;1.70;;;21.30;91.20;;;;;;5029438;28;20048;-62
2023/08/08 02:28:44;;;;;;;2.83;1.52;;;21.20;91.20;;;;;;5031147;28;20186;-69
2023/08/08 02:31:09;;;;;;;3.70;2.08;;;21.20;91.20;;;;;;5019516;28;20034;-68
2023/08/08 02:33:35;;;;;;;3.38;1.63;;;;;;;;;;5029973;28;20495;-70
2023/08/08 02:36:01;;;;;;;3.40;1.70;;;21.40;91.30;;;;;;5031177;28;20495;-64
2023/08/08 02:38:27;;;;;;;6.55;1.90;;;21.20;91.50;;;;;;5032392;28;20147;-64
2023/08/08 02:40:53;;;;;;;4.50;1.70;;;21.40;91.30;;;;;;5031190;28;20399;-66
2023/08/08 02:43:19;;;;;;;3.03;1.60;;;21.30;91.10;;;;;;5031452;28;20083;-62
2023/08/08 02:45:44;;;;;;;3.03;1.58;;;21.30;91.30;;;;;;5013975;28;20050;-65
2023/08/08 02:48:10;;;;;;;5.80;1.92;;;;;;;;;;5031158;28;20060;-69
2023/08/08 02:50:36;;;;;;;3.42;2.03;;;21.20;91.30;;;;;;5027474;28;20037;-64
2023/08/08 02:53:02;;;;;;;5.03;1.80;;;21.10;91.30;;;;;;5021312;28;20065;-65
2023/08/08 02:55:28;;;;;;;5.13;1.80;;;21.40;90.30;;;;;;5023229;28;20049;-65
2023/08/08 02:57:53;;;;;;;4.80;1.90;;;21.30;91.40;;;;;;5027677;28;20106;-64
2023/08/08 03:00:19;;;;;;;3.67;1.80;;;21.30;91.50;;;;;;5031425;28;20415;-64
2023/08/08 03:02:45;;;;;;;3.67;1.55;;;21.20;91.30;;;;;;5031261;28;20061;-63
2023/08/08 03:05:11;;;;;;;3.90;1.90;;;21.30;91.30;;;;;;5030276;28;20049;-63
2023/08/08 03:07:36;;;;;;;4.35;2.00;;;21.30;91.40;;;;;;5029985;28;20045;-64
2023/08/08 03:10:03;;;;;;;4.43;1.77;;;21.30;91.40;;;;;;5021972;28;20053;-64
2023/08/08 03:12:28;;;;;;;3.78;1.77;;;21.10;91.40;;;;;;5028015;28;20049;-64
2023/08/08 03:14:54;;;;;;;4.35;1.90;;;;;;;;;;5051427;28;20053;-65
2023/08/08 03:17:20;;;;;;;3.47;1.67;;;21.10;88.90;;;;;;5030274;28;20171;-64
2023/08/08 03:19:46;;;;;;;5.93;1.90;;;21.40;90.60;;;;;;5019065;28;20070;-62
2023/08/08 03:22:12;;;;;;;3.50;1.58;;;21.30;91.40;;;;;;5030424;28;20045;-66
2023/08/08 03:24:37;;;;;;;4.15;1.80;;;21.20;91.40;;;;;;5014633;28;20487;-64
2023/08/08 03:27:03;;;;;;;3.97;1.73;;;21.30;91.40;;;;;;5020807;28;20053;-63
2023/08/08 03:29:29;;;;;;;3.95;1.73;;;21.20;91.40;;;;;;5031159;28;20077;-64
2023/08/08 03:31:55;;;;;;;3.15;1.58;;;21.30;91.50;;;;;;5029385;28;20092;-65
2023/08/08 03:34:21;;;;;;;3.50;1.80;;;21.10;91.40;;;;;;5015739;28;20046;-63
2023/08/08 03:36:46;;;;;;;3.72;1.85;;;21.20;91.40;;;;;;4994989;28;20081;-63
2023/08/08 03:39:12;;;;;;;3.53;1.90;;;21.30;91.40;;;;;;5026747;28;20046;-63
2023/08/08 03:41:38;;;;;;;4.63;1.80;;;21.10;91.40;;;;;;5030457;28;20495;-63
2023/08/08 03:44:04;;;;;;;4.00;2.10;;;21.20;91.40;;;;;;5019546;28;20446;-63
2023/08/08 03:46:30;;;;;;;4.63;1.73;;;21.30;91.50;;;;;;5012719;28;20096;-64
2023/08/08 03:48:55;;;;;;;3.92;1.70;;;21.20;91.40;;;;;;5038321;28;20074;-70
2023/08/08 03:51:21;;;;;;;4.45;1.75;;;21.20;91.40;;;;;;5028485;28;20041;-72
2023/08/08 03:53:47;;;;;;;3.92;2.05;;;21.10;91.40;;;;;;5014315;28;20057;-70
2023/08/08 03:56:12;;;;;;;3.53;1.70;;;21.20;91.40;;;;;;5027476;28;20045;-67
2023/08/08 03:58:38;;;;;;;3.65;1.58;;;21.10;91.40;;;;;;5023402;28;20045;-64
2023/08/08 04:01:04;;;;;;;4.28;1.80;;;21.30;91.50;;;;;;5028319;28;20084;-64
2023/08/08 04:03:30;;;;;;;4.05;2.05;;;;;;;;;;5020512;28;20484;-71
2023/08/08 04:05:56;;;;;;;5.07;1.92;;;21.10;91.40;;;;;;5044086;28;20085;-63
2023/08/08 04:08:22;;;;;;;4.72;1.60;;;21.10;91.50;;;;;;5018556;28;20199;-65
2023/08/08 04:10:48;;;;;;;4.80;2.00;;;21.30;91.50;;;;;;5031852;28;20044;-61
2023/08/08 04:13:13;;;;;;;3.42;1.83;;;21.10;91.50;;;;;;5026166;28;20045;-62
2023/08/08 04:15:39;;;;;;;5.03;1.98;;;21.20;91.50;;;;;;5023510;28;20368;-62
2023/08/08 04:18:06;;;;;;;5.97;1.95;;;21.10;91.50;;;;;;5018677;28;20085;-61
2023/08/08 04:20:33;;;;;;;3.67;1.77;;;21.10;91.50;;;;;;5029889;28;20049;-62
2023/08/08 04:22:59;;;;;;;5.07;1.80;;;21.10;91.60;;;;;;5020799;28;20049;-62
2023/08/08 04:25:25;;;;;;;4.40;2.03;;;21.20;91.60;;;;;;5012051;28;20492;-61
2023/08/08 04:27:50;;;;;;;4.45;2.10;;;21.20;91.60;;;;;;5018029;28;20049;-61
2023/08/08 04:30:16;;;;;;;4.70;2.00;;;21.30;90.10;;;;;;5030373;28;20582;-63
2023/08/08 04:32:42;;;;;;;4.95;2.00;;;21.20;91.50;;;;;;5030320;28;20124;-66
2023/08/08 04:35:08;;;;;;;4.25;1.92;;;21.30;91.60;;;;;;5027896;28;20045;-67
2023/08/08 04:37:33;;;;;;;3.40;1.73;;;21.10;91.60;;;;;;5029874;28;20045;-68
2023/08/08 04:39:59;;;;;;;4.18;2.00;;;21.20;91.50;;;;;;5026672;28;20053;-66
2023/08/08 04:42:25;;;;;;;4.10;2.00;;;21.30;91.50;;;;;;5030813;28;20057;-66
2023/08/08 04:44:51;;;;;;;4.20;2.00;;;21.20;91.50;;;;;;5020967;28;20042;-66
2023/08/08 04:47:16;;;;;;;5.07;2.03;;;21.40;91.60;;;;;;5032125;28;20057;-68
2023/08/08 04:49:42;;;;;;;4.88;1.90;;;21.20;91.50;;;;;;5031426;28;20058;-67
2023/08/08 04:52:08;;;;;;;4.60;2.00;;;21.10;91.50;;;;;;5023589;28;20168;-65
2023/08/08 04:54:34;;;;;;;4.70;1.85;;;;;;;;;;5008149;28;20033;-63
2023/08/08 04:57:00;;;;;;;4.22;1.73;;;21.40;91.90;;;;;;5032987;28;20054;-66
2023/08/08 04:59:25;;;;;;;6.80;2.30;;;21.40;91.40;;;;;;5033881;28;20053;-64
2023/08/08 05:01:51;;;;;;;5.47;1.80;;;21.40;91.70;;;;;;5033660;28;20061;-65
2023/08/08 05:04:17;;;;;;;3.90;2.00;;;21.20;90.20;;;;;;5049332;28;20506;-64
2023/08/08 05:06:43;;;;;;;4.22;2.00;;;21.30;91.30;;;;;;5024292;28;20045;-65
2023/08/08 05:09:09;;;;;;;4.13;1.77;;;21.60;91.30;;;;;;5024314;28;20052;-67
2023/08/08 05:11:35;;;;;;;4.35;1.88;;;21.60;91.30;;;;;;5065358;28;20071;-69
2023/08/08 05:14:02;;;;;;;4.25;1.88;;;21.60;91.20;;;;;;5016943;28;20049;-65
2023/08/08 05:16:28;;;;;;;4.70;2.08;;;21.80;91.50;;;;;;5065975;28;20450;-67
2023/08/08 05:18:53;;;;;;;3.75;1.95;;;21.80;90.50;;;;;;5031953;28;20068;-69
2023/08/08 05:21:19;;;;;;;4.05;1.80;;;22.00;90.90;;;;;;5033282;28;20041;-69
2023/08/08 05:23:45;;;;;;;3.58;1.75;;;22.00;90.80;;;;;;5034372;28;20080;-66
2023/08/08 05:26:11;;;;;;;4.95;1.80;;;22.00;90.70;;;;;;5026408;28;20088;-65
2023/08/08 05:28:37;;;;;;;3.45;1.80;;;22.30;90.70;;;;;;5034006;28;20080;-66
2023/08/08 05:31:03;;;;;;;3.97;1.80;;;22.40;90.50;;;;;;5022506;28;20383;-65
2023/08/08 05:33:29;;;;;;;5.18;1.67;;;22.40;88.90;;;;;;5034169;28;20041;-68
2023/08/08 05:35:54;;;;;;;5.63;2.10;;;22.40;88.40;;;;;;5031874;28;20046;-66
2023/08/08 05:38:20;;;;;;;4.60;1.70;;;22.70;88.40;;;;;;5027151;28;20511;-65
2023/08/08 05:40:46;;;;;;;3.92;1.80;;;22.70;89.90;;;;;;5023832;28;20041;-61
2023/08/08 05:43:16;;;;;;;2.83;1.55;;;22.80;89.80;;;;;;5026261;28;20068;-64
2023/08/08 05:45:42;;;;;;;4.50;1.90;;;22.80;89.60;;;;;;5032194;28;20048;-65
2023/08/08 05:48:11;;;;;;;3.00;1.40;;;22.60;87.30;;;;;;5016226;28;20458;-68
2023/08/08 05:50:38;;;;;;;4.28;1.80;;;23.10;87.30;;;;;;5032049;28;20045;-64
2023/08/08 05:53:03;;;;;;;3.75;1.70;;;23.00;89.00;;;;;;5032121;28;20395;-70
2023/08/08 05:55:29;;;;;;;3.40;1.65;;;23.40;89.10;;;;;;5028665;28;20052;-65
2023/08/08 05:57:55;;;;;;;4.25;1.80;;;23.20;86.40;;;;;;5034135;28;20176;-67
2023/08/08 06:00:21;;;;;;;3.63;1.60;;;23.10;86.10;;;;;;5020421;28;20050;-64
2023/08/08 06:02:48;;;;;;;4.50;1.95;;;23.40;88.10;;;;;;5019105;28;20084;-66
2023/08/08 06:05:14;;;;;;;4.28;1.70;;;23.50;88.10;;;;;;5030399;28;20049;-67
2023/08/08 06:07:40;;;;;;;4.05;1.70;;;23.40;87.70;;;;;;5030425;28;20041;-69
2023/08/08 06:10:06;;;;;;;6.10;1.67;;;23.60;85.60;;;;;;5032862;28;20434;-69
2023/08/08 06:12:32;;;;;;;2.97;1.60;;;23.40;85.30;;;;;;5016027;28;20060;-64
2023/08/08 06:14:58;;;;;;;4.30;1.98;;;23.30;85.20;;;;;;5030607;28;20045;-67
2023/08/08 06:17:23;;;;;;;4.53;1.90;;;23.30;85.30;;;;;;5018343;28;20447;-67
2023/08/08 06:19:54;;;;;;;3.72;1.60;;;23.30;85.10;;;;;;5026513;28;20407;-65
2023/08/08 06:22:20;;;;;;;4.43;1.60;;;23.30;84.40;;;;;;5027632;28;20057;-63
2023/08/08 06:24:45;;;;;;;3.60;1.67;;;23.10;88.20;;;;;;5033294;28;20045;-64
2023/08/08 06:27:13;;;;;;;3.25;1.50;;;23.10;85.20;;;;;;5033192;28;20088;-61
2023/08/08 06:29:38;;;;;;;5.47;1.70;;;23.30;85.50;;;;;;5046565;28;20107;-65
2023/08/08 06:32:04;;;;;;;4.90;1.63;;;23.00;88.00;;;;;;5015098;28;20053;-68
2023/08/08 06:34:30;;;;;;;3.97;1.65;;;23.10;88.40;;;;;;5000808;28;20125;-64
2023/08/08 06:36:56;;;;;;;4.65;1.60;;;23.10;85.50;;;;;;4995998;28;20065;-64
2023/08/08 06:39:22;;;;;;;3.85;1.60;;;23.10;85.60;;;;;;5050878;28;20081;-64
2023/08/08 06:41:48;;;;;;;3.72;1.60;;;23.10;85.80;;;;;;5027345;28;20136;-61
2023/08/08 06:44:13;;;;;;;5.65;1.98;;;23.00;86.40;;;;;;5025981;28;20506;-62
2023/08/08 06:46:39;;;;;;;5.57;1.95;;;23.30;85.60;;;;;;5026781;28;20049;-61
2023/08/08 06:49:06;;;;;;;5.38;1.90;;;23.20;86.30;;;;;;5032768;28;20095;-61
2023/08/08 06:51:32;;;;;;;5.32;1.80;;;23.20;85.50;;;;;;5016544;28;20053;-67
2023/08/08 06:53:58;;;;;;;6.07;1.83;;;23.40;85.40;;;;;;5031090;28;20045;-64
2023/08/08 06:56:26;;;;;;;4.57;1.73;;;23.30;85.20;;;;;;5032769;28;20046;-64
2023/08/08 06:58:52;;;;;;;4.47;1.80;;;23.60;85.00;;;;;;5065032;28;20041;-65
2023/08/08 07:01:18;;;;;;;4.22;1.58;;;23.10;84.80;;;;;;5028062;28;20492;-61
2023/08/08 07:03:43;;;;;;;4.65;1.50;;;23.50;87.30;;;;;;5016691;28;20050;-62
2023/08/08 07:06:10;;;;;;;5.07;1.63;;;24.00;84.60;;;;;;5012616;28;20446;-61
2023/08/08 07:08:37;;;;;;;5.10;1.73;;;24.00;84.50;;;;;;5013287;28;20046;-62
2023/08/08 07:11:03;;;;;;;5.18;2.05;;;23.90;84.20;;;;;;4995786;28;20049;-64
2023/08/08 07:13:29;;;;;;;3.80;1.65;;;24.30;86.50;;;;;;5025381;28;20068;-61
2023/08/08 07:15:54;;;;;;;4.97;2.17;;;24.00;83.80;;;;;;5030351;28;20084;-62
2023/08/08 07:18:20;;;;;;;4.93;1.77;;;24.10;83.60;;;;;;5032843;28;20041;-62
2023/08/08 07:20:46;;;;;;;3.95;1.77;;;24.10;83.50;;;;;;5031080;28;20450;-63
2023/08/08 07:23:12;;;;;;;6.65;2.00;;;24.20;83.50;;;;;;5032415;28;20054;-64
2023/08/08 07:25:37;;;;;;;8.13;2.20;;;24.20;83.30;;;;;;5028052;28;20080;-64
2023/08/08 07:28:03;;;;;;;9.07;2.28;;;24.30;83.10;;;;;;5013067;28;20066;-62
2023/08/08 07:30:29;;;;;;;4.93;2.10;;;24.40;82.80;;;;;;5012546;28;20042;-65
2023/08/08 07:32:55;;;;;;;6.45;2.40;;;24.30;83.00;;;;;;5011630;28;20053;-63
2023/08/08 07:35:20;;;;;;;7.47;2.67;;;24.60;83.10;;;;;;5024367;28;20041;-66
2023/08/08 07:37:46;;;;;;;8.88;2.50;;;24.20;82.80;;;;;;5026635;28;20041;-71
2023/08/08 07:40:18;;;;;;;9.65;2.80;;;24.30;82.90;;;;;;5024383;28;20045;-61
2023/08/08 07:42:45;;;;;;;8.57;2.65;;;24.50;83.40;;;;;;5028315;28;20062;-61
2023/08/08 07:45:11;;;;;;;13.05;2.92;;;24.40;83.30;;;;;;5013854;28;20502;-70
2023/08/08 07:47:37;;;;;;;16.13;3.47;;;24.20;82.80;;;;;;5031790;28;20041;-68
2023/08/08 07:50:03;;;;;;;9.52;2.70;;;24.20;82.90;;;;;;5031081;28;20129;-73
2023/08/08 07:52:28;;;;;;;6.93;2.42;;;24.30;82.60;;;;;;5029418;28;20041;-71
2023/08/08 07:54:54;;;;;;;9.88;2.72;;;24.20;82.90;;;;;;5027545;28;20042;-77
2023/08/08 07:57:20;;;;;;;12.45;2.85;;;24.20;82.80;;;;;;5031305;28;20049;-75
2023/08/08 07:59:45;;;;;;;12.13;2.90;;;24.50;82.90;;;;;;5014148;28;20125;-78
2023/08/08 08:02:11;;;;;;;12.98;2.92;;;24.20;82.70;;;;;;5011909;28;20049;-77
2023/08/08 08:04:37;;;;;;;8.70;2.75;;;24.10;82.30;;;;;;5027792;28;20049;-71
2023/08/08 08:07:03;;;;;;;10.68;3.00;;;24.30;82.40;;;;;;5031535;28;20096;-74
2023/08/08 08:09:29;;;;;;;9.18;2.50;;;24.20;82.40;;;;;;5031652;28;20484;-69
2023/08/08 08:11:55;;;;;;;10.57;2.65;;;24.20;82.80;;;;;;5031294;28;20053;-75
2023/08/08 08:14:21;;;;;;;9.18;2.30;;;24.10;82.60;;;;;;5029451;28;20107;-76
2023/08/08 08:16:48;;;;;;;5.63;2.38;;;24.10;85.30;;;;;;5030120;28;20060;-63
2023/08/08 08:19:14;;;;;;;8.80;2.55;;;24.10;82.60;;;;;;5016210;28;20112;-62
2023/08/08 08:21:40;;;;;;;6.38;2.10;;;24.10;82.20;;;;;;5015676;28;20081;-79
2023/08/08 08:24:06;;;;;;;6.95;2.30;;;23.90;82.60;;;;;;5020735;28;20088;-79
2023/08/08 08:26:32;;;;;;;6.70;2.60;;;23.90;85.40;;;;;;5035828;28;20041;-77
2023/08/08 08:28:58;;;;;;;9.98;2.65;;;23.60;82.70;;;;;;5033573;28;20387;-69
2023/08/08 08:31:23;;;;;;;4.90;2.20;;;23.80;82.80;;;;;;5034263;28;20434;-63
2023/08/08 08:33:49;;;;;;;7.78;2.33;;;23.80;82.80;;;;;;5018399;28;20491;-63
2023/08/08 08:36:15;;;;;;;6.93;2.40;;;23.80;86.30;;;;;;5031222;28;20049;-63
2023/08/08 08:38:41;;;;;;;9.82;2.25;;;23.70;83.10;;;;;;5033477;28;20088;-74
2023/08/08 08:41:07;;;;;;;7.35;2.40;;;23.60;83.10;;;;;;5034118;28;20452;-78
2023/08/08 08:43:33;;;;;;;7.90;2.40;;;23.60;83.20;;;;;;5032184;28;20052;-74
2023/08/08 08:46:00;;;;;;;5.32;1.73;;;23.80;82.80;;;;;;5064134;28;20045;-63
2023/08/08 08:48:26;;;;;;;5.68;1.75;;;23.80;83.40;;;;;;5028798;28;20042;-63
2023/08/08 08:50:52;;;;;;;5.60;2.15;;;23.50;82.50;;;;;;5017476;28;20053;-80
2023/08/08 08:53:18;;;;;;;9.35;2.22;;;23.60;82.90;;;;;;5025274;28;20402;-67
2023/08/08 08:55:44;;;;;;;7.03;2.17;;;23.50;83.20;;;;;;5015526;28;20119;-71
2023/08/08 08:58:10;;;;;;;6.28;1.88;;;23.50;83.30;;;;;;5050499;28;20046;-64
2023/08/08 09:00:36;;;;;;;8.32;2.25;;;23.70;83.30;;;;;;5035260;28;20125;-63
2023/08/08 09:03:02;;;;;;;9.45;2.47;;;23.50;83.10;;;;;;5034449;28;20204;-61
2023/08/08 09:05:28;;;;;;;6.50;1.75;;;23.60;86.40;;;;;;5013696;28;20049;-63
2023/08/08 09:07:54;;;;;;;6.50;1.85;;;23.60;83.20;;;;;;4998066;28;20050;-69
2023/08/08 09:10:20;;;;;;;6.72;2.08;;;23.60;83.30;;;;;;4997460;28;20147;-69
2023/08/08 09:12:46;;;;;;;5.15;1.88;;;23.40;83.50;;;;;;5008509;28;20049;-64
2023/08/08 09:15:12;;;;;;;8.35;2.28;;;23.50;83.60;;;;;;5033366;28;20133;-63
2023/08/08 09:17:42;;;;;;;6.68;1.88;;;23.30;86.70;;;;;;5017232;28;20132;-63
2023/08/08 09:20:10;;;;;;;5.75;1.80;;;23.20;83.80;;;;;;5034777;28;20045;-74
2023/08/08 09:22:37;;;;;;;7.18;2.08;;;23.60;83.50;;;;;;5030999;28;20495;-68
2023/08/08 09:25:04;;;;;;;4.93;1.80;;;23.40;87.20;;;;;;5013805;28;20056;-72
2023/08/08 09:27:29;;;;;;;4.53;1.63;;;23.40;83.60;;;;;;5013097;28;20120;-72
2023/08/08 09:29:55;;;;;;;4.25;1.52;;;23.50;83.80;;;;;;5030020;28;20568;-66
2023/08/08 09:32:21;;;;;;;4.03;1.45;;;23.70;86.40;;;;;;5030763;28;20069;-63
2023/08/08 09:34:47;;;;;;;6.22;1.85;;;23.70;83.70;;;;;;5032888;28;20053;-68
2023/08/08 09:37:14;;;;;;;4.93;1.60;;;23.40;86.40;;;;;;5030709;28;20041;-67
2023/08/08 09:39:40;;;;;;;4.93;1.73;;;23.40;83.60;;;;;;5032845;28;20132;-71
2023/08/08 09:42:08;;;;;;;5.25;1.77;;;23.90;87.10;;;;;;5014646;28;20092;-63
2023/08/08 09:44:35;;;;;;;9.05;1.90;;;23.70;83.90;;;;;;5025429;28;20041;-62
2023/08/08 09:47:01;;;;;;;5.25;1.67;;;23.70;83.70;;;;;;5032649;28;20049;-61
2023/08/08 09:49:27;;;;;;;7.22;2.05;;;23.30;86.20;;;;;;5012472;28;20124;-62
2023/08/08 09:51:52;;;;;;;5.57;1.75;;;23.20;83.50;;;;;;5029068;28;20042;-70
2023/08/08 09:54:19;;;;;;;4.55;1.80;;;23.40;86.90;;;;;;5032748;28;20041;-65
2023/08/08 09:56:44;;;;;;;5.20;1.60;;;23.30;86.10;;;;;;5031819;28;20452;-67
2023/08/08 09:59:13;;;;;;;6.68;1.70;;;23.20;83.50;;;;;;5029178;28;20494;-70
2023/08/08 10:01:41;;;;;;;6.47;1.73;;;23.80;87.50;;;;;;5021650;28;20085;-67
2023/08/08 10:04:07;;;;;;;5.80;1.60;;;23.50;84.00;;;;;;5026051;28;20053;-68
2023/08/08 10:06:33;;;;;;;7.57;1.88;;;23.40;83.50;;;;;;5032284;28;20047;-69
2023/08/08 10:08:59;;;;;;;6.82;1.60;;;23.40;83.70;;;;;;5032371;28;20049;-68
2023/08/08 10:11:25;;;;;;;3.70;1.40;;;23.70;84.10;;;;;;5014961;28;20128;-72
2023/08/08 10:13:53;;;;;;;3.63;1.50;;;23.60;83.60;;;;;;5022645;28;20126;-63
2023/08/08 10:16:19;;;;;;;6.40;1.85;;;23.50;83.30;;;;;;5016420;28;20042;-63
2023/08/08 10:18:58;;;;;;;4.72;1.50;;;23.80;83.50;;;;;;5013682;28;20530;-62
2023/08/08 10:21:25;;;;;;;4.70;1.30;;;23.80;84.10;;;;;;5017994;28;20046;-62
2023/08/08 10:24:04;;;;;;;3.83;1.50;;;23.70;83.80;;;;;;5028821;28;20792;-73
2023/08/08 10:26:30;;;;;;;4.13;1.48;;;23.50;86.60;;;;;;5028725;28;20483;-63
2023/08/08 10:28:56;;;;;;;5.47;1.58;;;23.60;83.40;;;;;;5065299;28;20110;-62
2023/08/08 10:31:22;;;;;;;2.92;1.30;;;23.60;83.60;;;;;;5043785;28;20042;-61
2023/08/08 10:33:49;;;;;;;4.97;1.50;;;23.80;83.40;;;;;;5012513;28;20045;-61
2023/08/08 10:36:15;;;;;;;4.80;1.65;;;23.60;86.30;;;;;;5012394;28;20156;-62
2023/08/08 10:38:41;;;;;;;4.82;1.45;;;23.50;83.60;;;;;;5031916;28;20128;-74
2023/08/08 10:41:09;;;;;;;3.75;1.38;;;23.70;83.80;;;;;;5031261;28;20053;-72
2023/08/08 10:43:35;;;;;;;5.28;1.80;;;23.30;84.00;;;;;;5031747;28;20179;-62
2023/08/08 10:46:01;;;;;;;3.88;1.40;;;23.50;86.90;;;;;;5032032;28;20526;-62
2023/08/08 10:48:27;;;;;;;5.38;1.35;;;23.30;83.70;;;;;;5041160;28;20041;-67
2023/08/08 10:50:59;;;;;;;4.68;1.50;;;23.70;83.90;;;;;;5052568;28;20487;-70
2023/08/08 10:53:26;;;;;;;5.78;1.55;;;23.50;86.70;;;;;;5014521;28;20517;-62
2023/08/08 10:56:02;;;;;;;6.22;1.67;;;23.60;84.60;;;;;;5012752;28;20058;-70
2023/08/08 10:58:38;;;;;;;4.00;1.65;;;23.50;82.80;;;;;;5026479;28;20115;-71
2023/08/08 11:01:08;;;;;;;5.93;1.70;;;23.50;84.50;;;;;;5028789;28;20048;-62
2023/08/08 11:03:39;;;;;;;5.63;1.70;;;23.40;83.80;;;;;;5030389;28;20065;-63
2023/08/08 11:06:06;;;;;;;5.32;1.60;;;23.60;84.40;;;;;;5029979;28;20077;-63
2023/08/08 11:08:32;;;;;;;4.10;1.55;;;23.60;84.40;;;;;;5030309;28;20053;-74
2023/08/08 11:10:58;;;;;;;3.88;1.52;;;23.60;86.70;;;;;;5014197;28;20469;-73
2023/08/08 11:13:24;;;;;;;3.47;1.38;;;23.50;84.30;;;;;;5029269;28;20057;-65
2023/08/08 11:15:50;;;;;;;4.47;1.35;;;23.70;84.10;;;;;;5031894;28;20044;-62
2023/08/08 11:18:16;;;;;;;6.68;1.80;;;23.80;84.20;;;;;;5030285;28;20157;-64
2023/08/08 11:20:42;;;;;;;3.97;1.60;;;23.70;84.10;;;;;;5028725;28;20033;-65
2023/08/08 11:23:10;;;;;;;5.68;1.33;;;23.80;84.00;;;;;;5062231;28;20061;-65
2023/08/08 11:25:36;;;;;;;6.13;1.73;;;23.80;84.20;;;;;;5046983;28;20117;-66
2023/08/08 11:28:01;;;;;;;3.42;1.42;;;23.60;83.90;;;;;;5030917;28;20450;-64
2023/08/08 11:30:36;;;;;;;5.30;1.20;;;23.90;83.90;;;;;;5026163;28;20128;-64
2023/08/08 11:33:02;;;;;;;3.22;1.38;;;23.90;82.80;;;;;;5016755;28;20049;-67
2023/08/08 11:35:27;;;;;;;5.35;1.40;;;23.90;84.00;;;;;;5062052;28;20049;-62
2023/08/08 11:37:54;;;;;;;3.90;1.08;;;23.80;83.90;;;;;;5031178;28;20380;-62
2023/08/08 11:40:20;;;;;;;3.65;1.55;;;24.10;84.20;;;;;;5023638;28;20057;-74
2023/08/08 11:42:47;;;;;;;3.88;1.50;;;24.00;84.00;;;;;;5026979;28;20088;-75
2023/08/08 11:45:13;;;;;;;4.45;1.85;;;23.70;83.70;;;;;;5051983;28;20073;-64
2023/08/08 11:47:39;;;;;;;7.00;1.60;;;23.90;83.70;;;;;;5028310;28;20084;-64
2023/08/08 11:50:06;;;;;;;5.20;1.45;;;23.90;83.80;;;;;;5031306;28;20128;-64
2023/08/08 11:52:33;;;;;;;2.97;1.30;;;23.70;83.10;;;;;;5035793;28;20098;-63
2023/08/08 11:55:02;;;;;;;5.30;1.42;;;23.90;86.20;;;;;;5066324;28;20526;-64
2023/08/08 11:57:28;;;;;;;3.67;1.50;;;24.00;86.60;;;;;;5033985;28;20037;-63
2023/08/08 11:59:57;;;;;;;4.90;1.50;;;23.70;83.10;;;;;;5016453;28;20072;-62
2023/08/08 12:02:23;;;;;;;3.30;1.30;;;23.90;83.40;;;;;;5016097;28;20136;-68
2023/08/08 12:04:49;;;;;;;3.97;1.50;;;24.20;83.50;;;;;;5033573;28;20480;-69
2023/08/08 12:07:15;;;;;;;4.38;1.40;;;23.90;83.10;;;;;;5034044;28;20053;-71
2023/08/08 12:09:40;;;;;;;5.80;1.90;;;24.00;83.10;;;;;;5017506;28;20049;-70
2023/08/08 12:12:06;;;;;;;5.20;1.52;;;23.70;83.10;;;;;;5029978;28;20077;-64
2023/08/08 12:14:38;;;;;;;6.10;1.30;;;23.90;82.80;;;;;;5028683;28;20041;-63
2023/08/08 12:17:05;;;;;;;5.95;1.50;;;24.10;83.50;;;;;;5032963;28;20128;-61
2023/08/08 12:19:30;;;;;;;5.70;1.67;;;24.00;83.40;;;;;;5033823;28;20065;-64
2023/08/08 12:21:56;;;;;;;4.63;1.52;;;24.10;83.00;;;;;;5035291;28;20391;-62
2023/08/08 12:24:22;;;;;;;4.60;1.58;;;23.80;82.80;;;;;;5015990;28;20393;-62
2023/08/08 12:26:48;;;;;;;4.00;1.30;;;23.90;82.90;;;;;;5032684;28;20502;-63
2023/08/08 12:29:13;;;;;;;5.32;1.70;;;24.00;83.00;;;;;;5029604;28;20053;-63
2023/08/08 12:31:39;;;;;;;5.93;1.60;;;23.80;83.00;;;;;;5031173;28;20045;-62
2023/08/08 12:34:05;;;;;;;6.22;1.98;;;23.90;83.00;;;;;;5066680;28;20041;-62
2023/08/08 12:36:31;;;;;;;5.60;1.80;;;24.10;83.10;;;;;;5034173;28;20095;-62
2023/08/08 12:38:57;;;;;;;5.07;1.30;;;24.10;83.00;;;;;;5033381;28;20045;-62
2023/08/08 12:41:24;;;;;;;5.13;1.50;;;24.00;82.90;;;;;;5035716;28;20462;-61
2023/08/08 12:43:51;;;;;;;6.20;1.55;;;23.80;82.80;;;;;;5033334;28;20160;-61